sensor_id;sensor_type;location;lat;lon;timestamp;temperature;humidity
7240;DHT22;3661;53.288;10.458;2024-01-27T00:02:24;5.30;99.90
7240;DHT22;3661;53.288;10.458;2024-01-27T00:04:56;5.20;99.90
7240;DHT22;3661;53.288;10.458;2024-01-27T00:07:31;5.30;99.90
7240;DHT22;3661;53.288;10.458;2024-01-27T00:10:04;5.30;99.90
7240;DHT22;3661;53.288;10.458;2024-01-27T00:12:37;5.20;99.90
7240;DHT22;3661;53.288;10.458;2024-01-27T00:15:11;5.20;99.90
7240;DHT22;3661;53.288;10.458;2024-01-27T00:17:43;5.20;99.90
7240;DHT22;3661;53.288;10.458;2024-01-27T00:20:15;5.20;99.90
7240;DHT22;3661;53.288;10.458;2024-01-27T00:22:47;5.20;99.90
7240;DHT22;3661;53.288;10.458;2024-01-27T00:25:20;5.20;99.90
7240;DHT22;3661;53.288;10.458;2024-01-27T00:27:52;5.20;99.90
7240;DHT22;3661;53.288;10.458;2024-01-27T00:30:25;5.20;99.90
7240;DHT22;3661;53.288;10.458;2024-01-27T00:32:57;5.20;99.90
7240;DHT22;3661;53.288;10.458;2024-01-27T00:35:30;5.20;99.90
7240;DHT22;3661;53.288;10.458;2024-01-27T00:38:02;5.20;99.90
7240;DHT22;3661;53.288;10.458;2024-01-27T00:40:35;5.20;99.90
7240;DHT22;3661;53.288;10.458;2024-01-27T00:43:07;5.20;99.90
7240;DHT22;3661;53.288;10.458;2024-01-27T00:45:40;5.20;99.90
7240;DHT22;3661;53.288;10.458;2024-01-27T00:48:12;5.20;99.90
7240;DHT22;3661;53.288;10.458;2024-01-27T00:50:45;5.20;99.90
7240;DHT22;3661;53.288;10.458;2024-01-27T00:53:18;5.20;99.90
7240;DHT22;3661;53.288;10.458;2024-01-27T00:55:50;5.20;99.90
7240;DHT22;3661;53.288;10.458;2024-01-27T00:58:22;5.20;99.90
7240;DHT22;3661;53.288;10.458;2024-01-27T01:00:56;5.20;99.90
7240;DHT22;3661;53.288;10.458;2024-01-27T01:03:29;5.20;99.90
7240;DHT22;3661;53.288;10.458;2024-01-27T01:06:02;5.20;99.90
7240;DHT22;3661;53.288;10.458;2024-01-27T01:08:34;5.20;99.90
7240;DHT22;3661;53.288;10.458;2024-01-27T01:11:06;5.20;99.90
7240;DHT22;3661;53.288;10.458;2024-01-27T01:13:39;5.10;99.90
7240;DHT22;3661;53.288;10.458;2024-01-27T01:16:12;5.10;99.90
7240;DHT22;3661;53.288;10.458;2024-01-27T01:18:44;5.20;99.90
7240;DHT22;3661;53.288;10.458;2024-01-27T01:21:16;5.10;99.90
7240;DHT22;3661;53.288;10.458;2024-01-27T01:23:48;5.10;99.90
7240;DHT22;3661;53.288;10.458;2024-01-27T01:26:20;5.10;99.90
7240;DHT22;3661;53.288;10.458;2024-01-27T01:28:52;5.10;99.90
7240;DHT22;3661;53.288;10.458;2024-01-27T01:31:26;5.10;99.90
7240;DHT22;3661;53.288;10.458;2024-01-27T01:33:58;5.10;99.90
7240;DHT22;3661;53.288;10.458;2024-01-27T01:36:30;5.10;99.90
7240;DHT22;3661;53.288;10.458;2024-01-27T01:39:03;5.10;99.90
7240;DHT22;3661;53.288;10.458;2024-01-27T01:41:35;5.20;99.90
7240;DHT22;3661;53.288;10.458;2024-01-27T01:44:07;5.10;99.90
7240;DHT22;3661;53.288;10.458;2024-01-27T01:46:41;5.10;99.90
7240;DHT22;3661;53.288;10.458;2024-01-27T01:49:13;5.20;99.90
7240;DHT22;3661;53.288;10.458;2024-01-27T01:51:45;5.20;99.90
7240;DHT22;3661;53.288;10.458;2024-01-27T01:54:17;5.10;99.90
7240;DHT22;3661;53.288;10.458;2024-01-27T01:56:50;5.10;99.90
7240;DHT22;3661;53.288;10.458;2024-01-27T01:59:22;5.10;99.90
7240;DHT22;3661;53.288;10.458;2024-01-27T02:01:56;5.20;99.90
7240;DHT22;3661;53.288;10.458;2024-01-27T02:04:28;5.10;99.90
7240;DHT22;3661;53.288;10.458;2024-01-27T02:07:00;5.10;99.90
7240;DHT22;3661;53.288;10.458;2024-01-27T02:09:32;5.10;99.90
7240;DHT22;3661;53.288;10.458;2024-01-27T02:12:05;5.10;99.90
7240;DHT22;3661;53.288;10.458;2024-01-27T02:14:38;5.10;99.90
7240;DHT22;3661;53.288;10.458;2024-01-27T02:17:11;5.10;99.90
7240;DHT22;3661;53.288;10.458;2024-01-27T02:19:43;5.10;99.90
7240;DHT22;3661;53.288;10.458;2024-01-27T02:22:15;5.10;99.90
7240;DHT22;3661;53.288;10.458;2024-01-27T02:24:49;5.10;99.90
7240;DHT22;3661;53.288;10.458;2024-01-27T02:27:21;5.10;99.90
7240;DHT22;3661;53.288;10.458;2024-01-27T02:29:53;5.10;99.90
7240;DHT22;3661;53.288;10.458;2024-01-27T02:32:25;5.10;99.90
7240;DHT22;3661;53.288;10.458;2024-01-27T02:34:57;5.10;99.90
7240;DHT22;3661;53.288;10.458;2024-01-27T02:37:30;5.10;99.90
7240;DHT22;3661;53.288;10.458;2024-01-27T02:40:04;5.10;99.90
7240;DHT22;3661;53.288;10.458;2024-01-27T02:42:37;5.10;99.90
7240;DHT22;3661;53.288;10.458;2024-01-27T02:45:09;5.10;99.90
7240;DHT22;3661;53.288;10.458;2024-01-27T02:47:42;5.10;99.90
7240;DHT22;3661;53.288;10.458;2024-01-27T02:50:15;5.10;99.90
7240;DHT22;3661;53.288;10.458;2024-01-27T02:52:47;5.10;99.90
7240;DHT22;3661;53.288;10.458;2024-01-27T02:55:20;5.10;99.90
7240;DHT22;3661;53.288;10.458;2024-01-27T02:57:52;5.10;99.90
7240;DHT22;3661;53.288;10.458;2024-01-27T03:00:24;5.10;99.90
7240;DHT22;3661;53.288;10.458;2024-01-27T03:02:56;5.10;99.90
7240;DHT22;3661;53.288;10.458;2024-01-27T03:05:29;5.10;99.90
7240;DHT22;3661;53.288;10.458;2024-01-27T03:08:01;5.10;99.90
7240;DHT22;3661;53.288;10.458;2024-01-27T03:10:35;5.10;99.90
7240;DHT22;3661;53.288;10.458;2024-01-27T03:13:07;5.10;99.90
7240;DHT22;3661;53.288;10.458;2024-01-27T03:15:39;5.10;99.90
7240;DHT22;3661;53.288;10.458;2024-01-27T03:18:13;5.10;99.90
7240;DHT22;3661;53.288;10.458;2024-01-27T03:20:45;5.10;99.90
7240;DHT22;3661;53.288;10.458;2024-01-27T03:23:17;5.10;99.90
7240;DHT22;3661;53.288;10.458;2024-01-27T03:25:51;5.10;99.90
7240;DHT22;3661;53.288;10.458;2024-01-27T03:28:23;5.00;99.90
7240;DHT22;3661;53.288;10.458;2024-01-27T03:30:55;5.10;99.90
7240;DHT22;3661;53.288;10.458;2024-01-27T03:33:27;5.10;99.90
7240;DHT22;3661;53.288;10.458;2024-01-27T03:36:01;5.10;99.90
7240;DHT22;3661;53.288;10.458;2024-01-27T03:38:33;5.10;99.90
7240;DHT22;3661;53.288;10.458;2024-01-27T03:41:10;5.10;99.90
7240;DHT22;3661;53.288;10.458;2024-01-27T03:43:42;5.10;99.90
7240;DHT22;3661;53.288;10.458;2024-01-27T03:46:14;5.10;99.90
7240;DHT22;3661;53.288;10.458;2024-01-27T03:48:46;5.10;99.90
7240;DHT22;3661;53.288;10.458;2024-01-27T03:51:18;5.10;99.90
7240;DHT22;3661;53.288;10.458;2024-01-27T03:53:51;5.10;99.90
7240;DHT22;3661;53.288;10.458;2024-01-27T03:56:24;5.10;99.90
7240;DHT22;3661;53.288;10.458;2024-01-27T03:58:56;5.10;99.90
7240;DHT22;3661;53.288;10.458;2024-01-27T04:01:28;5.10;99.90
7240;DHT22;3661;53.288;10.458;2024-01-27T04:04:00;5.10;99.90
7240;DHT22;3661;53.288;10.458;2024-01-27T04:06:36;5.10;99.90
7240;DHT22;3661;53.288;10.458;2024-01-27T04:09:09;5.10;99.90
7240;DHT22;3661;53.288;10.458;2024-01-27T04:11:42;5.10;99.90
7240;DHT22;3661;53.288;10.458;2024-01-27T04:14:14;5.10;99.90
7240;DHT22;3661;53.288;10.458;2024-01-27T04:16:47;5.10;99.90
7240;DHT22;3661;53.288;10.458;2024-01-27T04:19:19;5.10;99.90
7240;DHT22;3661;53.288;10.458;2024-01-27T04:21:51;5.20;99.90
7240;DHT22;3661;53.288;10.458;2024-01-27T04:24:23;5.20;99.90
7240;DHT22;3661;53.288;10.458;2024-01-27T04:26:57;5.10;99.90
7240;DHT22;3661;53.288;10.458;2024-01-27T04:29:30;5.10;99.90
7240;DHT22;3661;53.288;10.458;2024-01-27T04:32:02;5.20;99.90
7240;DHT22;3661;53.288;10.458;2024-01-27T04:34:34;5.20;99.90
7240;DHT22;3661;53.288;10.458;2024-01-27T04:37:06;5.10;99.90
7240;DHT22;3661;53.288;10.458;2024-01-27T04:39:38;5.10;99.90
7240;DHT22;3661;53.288;10.458;2024-01-27T04:42:12;5.20;99.90
7240;DHT22;3661;53.288;10.458;2024-01-27T04:44:44;5.10;99.90
7240;DHT22;3661;53.288;10.458;2024-01-27T04:47:16;5.20;99.90
7240;DHT22;3661;53.288;10.458;2024-01-27T04:49:48;5.10;99.90
7240;DHT22;3661;53.288;10.458;2024-01-27T04:52:20;5.20;99.90
7240;DHT22;3661;53.288;10.458;2024-01-27T04:54:52;5.10;99.90
7240;DHT22;3661;53.288;10.458;2024-01-27T04:57:26;5.10;99.90
7240;DHT22;3661;53.288;10.458;2024-01-27T04:59:58;5.10;99.90
7240;DHT22;3661;53.288;10.458;2024-01-27T05:02:30;5.10;99.90
7240;DHT22;3661;53.288;10.458;2024-01-27T05:05:03;5.10;99.90
7240;DHT22;3661;53.288;10.458;2024-01-27T05:07:35;5.10;99.90
7240;DHT22;3661;53.288;10.458;2024-01-27T05:10:10;5.10;99.90
7240;DHT22;3661;53.288;10.458;2024-01-27T05:12:44;5.20;99.90
7240;DHT22;3661;53.288;10.458;2024-01-27T05:15:16;5.10;99.90
7240;DHT22;3661;53.288;10.458;2024-01-27T05:17:48;5.10;99.90
7240;DHT22;3661;53.288;10.458;2024-01-27T05:20:20;5.10;99.90
7240;DHT22;3661;53.288;10.458;2024-01-27T05:22:53;5.20;99.90
7240;DHT22;3661;53.288;10.458;2024-01-27T05:25:26;5.10;99.90
7240;DHT22;3661;53.288;10.458;2024-01-27T05:28:00;5.10;99.90
7240;DHT22;3661;53.288;10.458;2024-01-27T05:30:32;5.10;99.90
7240;DHT22;3661;53.288;10.458;2024-01-27T05:33:05;5.10;99.90
7240;DHT22;3661;53.288;10.458;2024-01-27T05:35:37;5.10;99.90
7240;DHT22;3661;53.288;10.458;2024-01-27T05:38:09;5.10;99.90
7240;DHT22;3661;53.288;10.458;2024-01-27T05:40:41;5.10;99.90
7240;DHT22;3661;53.288;10.458;2024-01-27T05:43:15;5.10;99.90
7240;DHT22;3661;53.288;10.458;2024-01-27T05:45:47;5.10;99.90
7240;DHT22;3661;53.288;10.458;2024-01-27T05:48:20;5.00;99.90
7240;DHT22;3661;53.288;10.458;2024-01-27T05:50:55;5.00;99.90
7240;DHT22;3661;53.288;10.458;2024-01-27T05:53:28;5.00;99.90
7240;DHT22;3661;53.288;10.458;2024-01-27T05:56:00;5.00;99.90
7240;DHT22;3661;53.288;10.458;2024-01-27T05:58:33;5.00;99.90
7240;DHT22;3661;53.288;10.458;2024-01-27T06:01:05;5.00;99.90
7240;DHT22;3661;53.288;10.458;2024-01-27T06:03:41;5.00;99.90
7240;DHT22;3661;53.288;10.458;2024-01-27T06:06:13;4.90;99.90
7240;DHT22;3661;53.288;10.458;2024-01-27T06:08:45;4.90;99.90
7240;DHT22;3661;53.288;10.458;2024-01-27T06:11:23;4.90;99.90
7240;DHT22;3661;53.288;10.458;2024-01-27T06:13:57;4.90;99.90
7240;DHT22;3661;53.288;10.458;2024-01-27T06:16:29;4.80;99.90
7240;DHT22;3661;53.288;10.458;2024-01-27T06:19:02;4.80;99.90
7240;DHT22;3661;53.288;10.458;2024-01-27T06:21:34;4.80;99.90
7240;DHT22;3661;53.288;10.458;2024-01-27T06:24:06;4.70;99.90
7240;DHT22;3661;53.288;10.458;2024-01-27T06:26:38;4.70;99.90
7240;DHT22;3661;53.288;10.458;2024-01-27T06:29:13;4.70;99.90
7240;DHT22;3661;53.288;10.458;2024-01-27T06:31:45;4.70;99.90
7240;DHT22;3661;53.288;10.458;2024-01-27T06:34:18;4.70;99.90
7240;DHT22;3661;53.288;10.458;2024-01-27T06:36:50;4.70;99.90
7240;DHT22;3661;53.288;10.458;2024-01-27T06:39:22;4.70;99.90
7240;DHT22;3661;53.288;10.458;2024-01-27T06:41:54;4.60;99.90
7240;DHT22;3661;53.288;10.458;2024-01-27T06:44:27;4.60;99.90
7240;DHT22;3661;53.288;10.458;2024-01-27T06:47:00;4.60;99.90
7240;DHT22;3661;53.288;10.458;2024-01-27T06:49:32;4.60;99.90
7240;DHT22;3661;53.288;10.458;2024-01-27T06:52:04;4.60;99.90
7240;DHT22;3661;53.288;10.458;2024-01-27T06:54:36;4.60;99.90
7240;DHT22;3661;53.288;10.458;2024-01-27T06:57:21;4.50;99.90
7240;DHT22;3661;53.288;10.458;2024-01-27T06:59:55;4.50;99.90
7240;DHT22;3661;53.288;10.458;2024-01-27T07:02:28;4.50;99.90
7240;DHT22;3661;53.288;10.458;2024-01-27T07:05:00;4.50;99.90
7240;DHT22;3661;53.288;10.458;2024-01-27T07:07:33;4.50;99.90
7240;DHT22;3661;53.288;10.458;2024-01-27T07:10:07;4.40;99.90
7240;DHT22;3661;53.288;10.458;2024-01-27T07:12:39;4.40;99.90
7240;DHT22;3661;53.288;10.458;2024-01-27T07:15:13;4.40;99.90
7240;DHT22;3661;53.288;10.458;2024-01-27T07:17:45;4.40;99.90
7240;DHT22;3661;53.288;10.458;2024-01-27T07:20:17;4.40;99.90
7240;DHT22;3661;53.288;10.458;2024-01-27T07:22:49;4.40;99.90
7240;DHT22;3661;53.288;10.458;2024-01-27T07:25:21;4.40;99.90
7240;DHT22;3661;53.288;10.458;2024-01-27T07:27:54;4.40;99.90
7240;DHT22;3661;53.288;10.458;2024-01-27T07:30:27;4.30;99.90
7240;DHT22;3661;53.288;10.458;2024-01-27T07:33:00;4.30;99.90
7240;DHT22;3661;53.288;10.458;2024-01-27T07:35:34;4.30;99.90
7240;DHT22;3661;53.288;10.458;2024-01-27T07:38:06;4.30;99.90
7240;DHT22;3661;53.288;10.458;2024-01-27T07:40:39;4.30;99.90
7240;DHT22;3661;53.288;10.458;2024-01-27T07:43:11;4.30;99.90
7240;DHT22;3661;53.288;10.458;2024-01-27T07:45:44;4.20;99.90
7240;DHT22;3661;53.288;10.458;2024-01-27T07:48:17;4.20;99.90
7240;DHT22;3661;53.288;10.458;2024-01-27T07:50:49;4.20;99.90
7240;DHT22;3661;53.288;10.458;2024-01-27T07:53:21;4.20;99.90
7240;DHT22;3661;53.288;10.458;2024-01-27T07:55:53;4.20;99.90
7240;DHT22;3661;53.288;10.458;2024-01-27T07:58:26;4.20;99.90
7240;DHT22;3661;53.288;10.458;2024-01-27T08:01:04;4.20;99.90
7240;DHT22;3661;53.288;10.458;2024-01-27T08:03:36;4.10;99.90
7240;DHT22;3661;53.288;10.458;2024-01-27T08:06:13;4.10;99.90
7240;DHT22;3661;53.288;10.458;2024-01-27T08:08:46;4.10;99.90
7240;DHT22;3661;53.288;10.458;2024-01-27T08:11:18;4.10;99.90
7240;DHT22;3661;53.288;10.458;2024-01-27T08:13:51;4.10;99.90
7240;DHT22;3661;53.288;10.458;2024-01-27T08:16:24;4.10;99.90
7240;DHT22;3661;53.288;10.458;2024-01-27T08:18:57;4.10;99.90
7240;DHT22;3661;53.288;10.458;2024-01-27T08:21:29;4.10;99.90
7240;DHT22;3661;53.288;10.458;2024-01-27T08:24:01;4.10;99.90
7240;DHT22;3661;53.288;10.458;2024-01-27T08:26:33;4.10;99.90
7240;DHT22;3661;53.288;10.458;2024-01-27T08:29:07;4.10;99.90
7240;DHT22;3661;53.288;10.458;2024-01-27T08:31:40;4.10;99.90
7240;DHT22;3661;53.288;10.458;2024-01-27T08:34:12;4.10;99.90
7240;DHT22;3661;53.288;10.458;2024-01-27T08:36:44;4.00;99.90
7240;DHT22;3661;53.288;10.458;2024-01-27T08:39:17;4.10;99.90
7240;DHT22;3661;53.288;10.458;2024-01-27T08:41:49;4.00;99.90
7240;DHT22;3661;53.288;10.458;2024-01-27T08:44:21;4.10;99.90
7240;DHT22;3661;53.288;10.458;2024-01-27T08:46:55;4.10;99.90
7240;DHT22;3661;53.288;10.458;2024-01-27T08:49:27;4.10;99.90
7240;DHT22;3661;53.288;10.458;2024-01-27T08:52:01;4.10;99.90
7240;DHT22;3661;53.288;10.458;2024-01-27T08:54:33;4.20;99.90
7240;DHT22;3661;53.288;10.458;2024-01-27T08:57:05;4.20;99.90
7240;DHT22;3661;53.288;10.458;2024-01-27T08:59:40;4.30;99.90
7240;DHT22;3661;53.288;10.458;2024-01-27T09:02:14;4.30;99.90
7240;DHT22;3661;53.288;10.458;2024-01-27T09:04:46;4.30;99.90
7240;DHT22;3661;53.288;10.458;2024-01-27T09:07:18;4.40;99.90
7240;DHT22;3661;53.288;10.458;2024-01-27T09:09:51;4.40;99.90
7240;DHT22;3661;53.288;10.458;2024-01-27T09:12:23;4.50;99.90
7240;DHT22;3661;53.288;10.458;2024-01-27T09:14:55;4.50;99.90
7240;DHT22;3661;53.288;10.458;2024-01-27T09:17:32;4.60;99.90
7240;DHT22;3661;53.288;10.458;2024-01-27T09:20:05;4.70;99.90
7240;DHT22;3661;53.288;10.458;2024-01-27T09:22:37;4.80;99.90
7240;DHT22;3661;53.288;10.458;2024-01-27T09:25:10;4.80;99.90
7240;DHT22;3661;53.288;10.458;2024-01-27T09:27:42;4.90;99.90
7240;DHT22;3661;53.288;10.458;2024-01-27T09:30:15;4.90;99.90
7240;DHT22;3661;53.288;10.458;2024-01-27T09:32:48;5.00;99.90
7240;DHT22;3661;53.288;10.458;2024-01-27T09:35:20;5.10;99.90
7240;DHT22;3661;53.288;10.458;2024-01-27T09:37:52;5.10;99.90
7240;DHT22;3661;53.288;10.458;2024-01-27T09:40:25;5.20;99.90
7240;DHT22;3661;53.288;10.458;2024-01-27T09:42:59;5.30;99.90
7240;DHT22;3661;53.288;10.458;2024-01-27T09:45:31;5.40;99.90
7240;DHT22;3661;53.288;10.458;2024-01-27T09:48:07;5.50;99.90
7240;DHT22;3661;53.288;10.458;2024-01-27T09:50:44;5.60;99.90
7240;DHT22;3661;53.288;10.458;2024-01-27T09:53:17;5.70;99.90
7240;DHT22;3661;53.288;10.458;2024-01-27T09:55:49;5.80;99.90
7240;DHT22;3661;53.288;10.458;2024-01-27T09:58:23;5.90;99.90
7240;DHT22;3661;53.288;10.458;2024-01-27T10:00:58;6.00;99.90
7240;DHT22;3661;53.288;10.458;2024-01-27T10:03:35;6.10;99.90
7240;DHT22;3661;53.288;10.458;2024-01-27T10:06:09;6.20;99.90
7240;DHT22;3661;53.288;10.458;2024-01-27T10:08:41;6.30;99.90
7240;DHT22;3661;53.288;10.458;2024-01-27T10:11:15;6.40;99.90
7240;DHT22;3661;53.288;10.458;2024-01-27T10:13:54;6.50;99.90
7240;DHT22;3661;53.288;10.458;2024-01-27T10:16:27;6.60;99.90
7240;DHT22;3661;53.288;10.458;2024-01-27T10:19:01;6.70;99.90
7240;DHT22;3661;53.288;10.458;2024-01-27T10:21:33;6.80;99.90
7240;DHT22;3661;53.288;10.458;2024-01-27T10:24:06;7.00;99.90
7240;DHT22;3661;53.288;10.458;2024-01-27T10:30:06;7.20;99.90
7240;DHT22;3661;53.288;10.458;2024-01-27T10:32:55;7.30;99.90
7240;DHT22;3661;53.288;10.458;2024-01-27T10:35:29;7.40;99.90
7240;DHT22;3661;53.288;10.458;2024-01-27T10:38:01;7.50;99.90
7240;DHT22;3661;53.288;10.458;2024-01-27T10:40:35;7.60;99.90
7240;DHT22;3661;53.288;10.458;2024-01-27T10:43:08;7.70;99.90
7240;DHT22;3661;53.288;10.458;2024-01-27T10:45:41;7.90;99.90
7240;DHT22;3661;53.288;10.458;2024-01-27T10:48:13;8.00;99.90
7240;DHT22;3661;53.288;10.458;2024-01-27T10:50:48;8.00;99.90
7240;DHT22;3661;53.288;10.458;2024-01-27T10:53:24;8.10;99.90
7240;DHT22;3661;53.288;10.458;2024-01-27T10:55:58;8.20;99.90
7240;DHT22;3661;53.288;10.458;2024-01-27T10:58:30;8.40;99.90
7240;DHT22;3661;53.288;10.458;2024-01-27T11:01:03;8.50;99.90
7240;DHT22;3661;53.288;10.458;2024-01-27T11:03:38;8.60;99.90
7240;DHT22;3661;53.288;10.458;2024-01-27T11:06:12;8.70;99.90
7240;DHT22;3661;53.288;10.458;2024-01-27T11:08:48;8.80;99.90
7240;DHT22;3661;53.288;10.458;2024-01-27T11:11:21;8.90;99.90
7240;DHT22;3661;53.288;10.458;2024-01-27T11:13:53;9.00;99.90
7240;DHT22;3661;53.288;10.458;2024-01-27T11:16:25;9.10;99.90
7240;DHT22;3661;53.288;10.458;2024-01-27T11:18:59;9.20;99.90
7240;DHT22;3661;53.288;10.458;2024-01-27T11:21:32;9.30;99.90
7240;DHT22;3661;53.288;10.458;2024-01-27T11:24:13;9.50;99.90
7240;DHT22;3661;53.288;10.458;2024-01-27T11:26:45;9.60;99.90
7240;DHT22;3661;53.288;10.458;2024-01-27T11:29:18;9.70;99.90
7240;DHT22;3661;53.288;10.458;2024-01-27T11:31:50;9.80;99.90
7240;DHT22;3661;53.288;10.458;2024-01-27T11:34:22;9.90;99.90
7240;DHT22;3661;53.288;10.458;2024-01-27T11:36:56;10.00;99.90
7240;DHT22;3661;53.288;10.458;2024-01-27T11:39:29;10.10;99.90
7240;DHT22;3661;53.288;10.458;2024-01-27T11:42:05;10.20;99.90
7240;DHT22;3661;53.288;10.458;2024-01-27T11:44:38;10.40;99.90
7240;DHT22;3661;53.288;10.458;2024-01-27T11:47:15;10.40;99.90
7240;DHT22;3661;53.288;10.458;2024-01-27T11:49:51;10.60;99.90
7240;DHT22;3661;53.288;10.458;2024-01-27T11:52:28;10.70;99.90
7240;DHT22;3661;53.288;10.458;2024-01-27T11:55:01;10.80;99.90
7240;DHT22;3661;53.288;10.458;2024-01-27T11:57:36;10.80;99.90
7240;DHT22;3661;53.288;10.458;2024-01-27T12:00:09;10.90;99.90
7240;DHT22;3661;53.288;10.458;2024-01-27T12:02:41;11.00;99.90
7240;DHT22;3661;53.288;10.458;2024-01-27T12:05:13;11.10;99.90
7240;DHT22;3661;53.288;10.458;2024-01-27T12:07:47;11.20;99.90
7240;DHT22;3661;53.288;10.458;2024-01-27T12:10:20;11.20;99.90
7240;DHT22;3661;53.288;10.458;2024-01-27T12:12:52;11.30;99.90
7240;DHT22;3661;53.288;10.458;2024-01-27T12:15:24;11.30;99.90
7240;DHT22;3661;53.288;10.458;2024-01-27T12:17:57;11.40;99.90
7240;DHT22;3661;53.288;10.458;2024-01-27T12:20:29;11.50;99.90
7240;DHT22;3661;53.288;10.458;2024-01-27T12:23:06;11.50;99.90
7240;DHT22;3661;53.288;10.458;2024-01-27T12:25:38;11.60;99.90
7240;DHT22;3661;53.288;10.458;2024-01-27T12:28:11;11.70;99.90
7240;DHT22;3661;53.288;10.458;2024-01-27T12:30:43;11.70;99.90
7240;DHT22;3661;53.288;10.458;2024-01-27T12:33:16;11.70;99.90
7240;DHT22;3661;53.288;10.458;2024-01-27T12:35:50;11.80;99.90
7240;DHT22;3661;53.288;10.458;2024-01-27T12:38:27;11.80;99.90
7240;DHT22;3661;53.288;10.458;2024-01-27T12:40:59;11.80;99.90
7240;DHT22;3661;53.288;10.458;2024-01-27T12:43:34;11.90;99.90
7240;DHT22;3661;53.288;10.458;2024-01-27T12:46:06;11.90;99.90
7240;DHT22;3661;53.288;10.458;2024-01-27T12:48:38;11.90;99.90
7240;DHT22;3661;53.288;10.458;2024-01-27T12:51:11;11.90;99.90
7240;DHT22;3661;53.288;10.458;2024-01-27T12:53:46;11.90;99.90
7240;DHT22;3661;53.288;10.458;2024-01-27T12:56:18;12.00;99.90
7240;DHT22;3661;53.288;10.458;2024-01-27T12:58:50;11.90;99.90
7240;DHT22;3661;53.288;10.458;2024-01-27T13:01:22;11.90;99.90
7240;DHT22;3661;53.288;10.458;2024-01-27T13:03:55;11.90;99.90
7240;DHT22;3661;53.288;10.458;2024-01-27T13:06:27;11.90;99.90
7240;DHT22;3661;53.288;10.458;2024-01-27T13:09:00;11.90;99.90
7240;DHT22;3661;53.288;10.458;2024-01-27T13:11:33;11.90;99.90
7240;DHT22;3661;53.288;10.458;2024-01-27T13:14:06;11.90;99.90
7240;DHT22;3661;53.288;10.458;2024-01-27T13:16:40;11.90;99.90
7240;DHT22;3661;53.288;10.458;2024-01-27T13:19:12;11.90;99.90
7240;DHT22;3661;53.288;10.458;2024-01-27T13:21:44;11.90;99.90
7240;DHT22;3661;53.288;10.458;2024-01-27T13:24:17;11.90;99.90
7240;DHT22;3661;53.288;10.458;2024-01-27T13:26:50;11.90;99.90
7240;DHT22;3661;53.288;10.458;2024-01-27T13:29:23;11.90;99.90
7240;DHT22;3661;53.288;10.458;2024-01-27T13:31:56;11.80;99.90
7240;DHT22;3661;53.288;10.458;2024-01-27T13:34:29;11.80;99.90
7240;DHT22;3661;53.288;10.458;2024-01-27T13:37:01;11.80;99.90
7240;DHT22;3661;53.288;10.458;2024-01-27T13:39:36;11.80;99.90
7240;DHT22;3661;53.288;10.458;2024-01-27T13:42:15;11.80;99.90
7240;DHT22;3661;53.288;10.458;2024-01-27T13:44:47;11.80;99.90
7240;DHT22;3661;53.288;10.458;2024-01-27T13:47:19;11.80;99.90
7240;DHT22;3661;53.288;10.458;2024-01-27T13:49:52;11.70;99.90
7240;DHT22;3661;53.288;10.458;2024-01-27T13:52:24;11.70;99.90
7240;DHT22;3661;53.288;10.458;2024-01-27T13:54:57;11.70;99.90
7240;DHT22;3661;53.288;10.458;2024-01-27T13:57:29;11.70;99.90
7240;DHT22;3661;53.288;10.458;2024-01-27T14:00:02;11.70;99.90
7240;DHT22;3661;53.288;10.458;2024-01-27T14:02:34;11.60;99.90
7240;DHT22;3661;53.288;10.458;2024-01-27T14:05:06;11.60;99.90
7240;DHT22;3661;53.288;10.458;2024-01-27T14:07:38;11.60;99.90
7240;DHT22;3661;53.288;10.458;2024-01-27T14:10:12;11.60;99.90
7240;DHT22;3661;53.288;10.458;2024-01-27T14:12:44;11.60;99.90
7240;DHT22;3661;53.288;10.458;2024-01-27T14:15:16;11.60;99.90
7240;DHT22;3661;53.288;10.458;2024-01-27T14:17:49;11.60;99.90
7240;DHT22;3661;53.288;10.458;2024-01-27T14:20:21;11.60;99.90
7240;DHT22;3661;53.288;10.458;2024-01-27T14:22:54;11.60;99.90
7240;DHT22;3661;53.288;10.458;2024-01-27T14:25:29;11.60;99.90
7240;DHT22;3661;53.288;10.458;2024-01-27T14:28:02;11.60;99.90
7240;DHT22;3661;53.288;10.458;2024-01-27T14:30:34;11.60;99.90
7240;DHT22;3661;53.288;10.458;2024-01-27T14:33:07;11.60;99.90
7240;DHT22;3661;53.288;10.458;2024-01-27T14:35:39;11.60;99.90
7240;DHT22;3661;53.288;10.458;2024-01-27T14:38:11;11.60;99.90
7240;DHT22;3661;53.288;10.458;2024-01-27T14:40:45;11.60;99.90
7240;DHT22;3661;53.288;10.458;2024-01-27T14:43:17;11.60;99.90
7240;DHT22;3661;53.288;10.458;2024-01-27T14:45:49;11.60;99.90
7240;DHT22;3661;53.288;10.458;2024-01-27T14:48:21;11.60;99.90
7240;DHT22;3661;53.288;10.458;2024-01-27T14:50:54;11.50;99.90
7240;DHT22;3661;53.288;10.458;2024-01-27T14:53:29;11.50;99.90
7240;DHT22;3661;53.288;10.458;2024-01-27T14:56:03;11.40;99.90
7240;DHT22;3661;53.288;10.458;2024-01-27T14:58:35;11.40;99.90
7240;DHT22;3661;53.288;10.458;2024-01-27T15:01:07;11.40;99.90
7240;DHT22;3661;53.288;10.458;2024-01-27T15:03:41;11.30;99.90
7240;DHT22;3661;53.288;10.458;2024-01-27T15:06:13;11.20;99.90
7240;DHT22;3661;53.288;10.458;2024-01-27T15:08:45;11.20;99.90
7240;DHT22;3661;53.288;10.458;2024-01-27T15:11:21;11.10;99.90
7240;DHT22;3661;53.288;10.458;2024-01-27T15:13:53;11.10;99.90
7240;DHT22;3661;53.288;10.458;2024-01-27T15:16:25;11.00;99.90
7240;DHT22;3661;53.288;10.458;2024-01-27T15:18:59;10.90;99.90
7240;DHT22;3661;53.288;10.458;2024-01-27T15:21:32;10.80;99.90
7240;DHT22;3661;53.288;10.458;2024-01-27T15:24:04;10.70;99.90
7240;DHT22;3661;53.288;10.458;2024-01-27T15:26:38;10.60;99.90
7240;DHT22;3661;53.288;10.458;2024-01-27T15:29:10;10.60;99.90
7240;DHT22;3661;53.288;10.458;2024-01-27T15:31:42;10.50;99.90
7240;DHT22;3661;53.288;10.458;2024-01-27T15:34:14;10.40;99.90
7240;DHT22;3661;53.288;10.458;2024-01-27T15:36:46;10.30;99.90
7240;DHT22;3661;53.288;10.458;2024-01-27T15:39:19;10.20;99.90
7240;DHT22;3661;53.288;10.458;2024-01-27T15:41:52;10.20;99.90
7240;DHT22;3661;53.288;10.458;2024-01-27T15:44:26;10.10;99.90
7240;DHT22;3661;53.288;10.458;2024-01-27T15:46:58;10.00;99.90
7240;DHT22;3661;53.288;10.458;2024-01-27T15:49:30;9.90;99.90
7240;DHT22;3661;53.288;10.458;2024-01-27T15:52:03;9.80;99.90
7240;DHT22;3661;53.288;10.458;2024-01-27T15:54:35;9.70;99.90
7240;DHT22;3661;53.288;10.458;2024-01-27T15:57:11;9.60;99.90
7240;DHT22;3661;53.288;10.458;2024-01-27T15:59:43;9.60;99.90
7240;DHT22;3661;53.288;10.458;2024-01-27T16:02:15;9.50;99.90
7240;DHT22;3661;53.288;10.458;2024-01-27T16:04:47;9.50;99.90
7240;DHT22;3661;53.288;10.458;2024-01-27T16:07:19;9.40;99.90
7240;DHT22;3661;53.288;10.458;2024-01-27T16:09:54;9.30;99.90
7240;DHT22;3661;53.288;10.458;2024-01-27T16:12:29;9.30;99.90
7240;DHT22;3661;53.288;10.458;2024-01-27T16:15:01;9.20;99.90
7240;DHT22;3661;53.288;10.458;2024-01-27T16:17:34;9.20;99.90
7240;DHT22;3661;53.288;10.458;2024-01-27T16:20:08;9.10;99.90
7240;DHT22;3661;53.288;10.458;2024-01-27T16:22:40;9.00;99.90
7240;DHT22;3661;53.288;10.458;2024-01-27T16:25:12;8.90;99.90
7240;DHT22;3661;53.288;10.458;2024-01-27T16:27:47;8.90;99.90
7240;DHT22;3661;53.288;10.458;2024-01-27T16:30:19;8.80;99.90
7240;DHT22;3661;53.288;10.458;2024-01-27T16:32:51;8.70;99.90
7240;DHT22;3661;53.288;10.458;2024-01-27T16:35:23;8.60;99.90
7240;DHT22;3661;53.288;10.458;2024-01-27T16:37:55;8.50;99.90